Taylor, Pennsylvania
Current Conditions -  °F | °C
As of 1:54 AM on Friday 28 Nov 2014 (Local Time) from KAVP Reporting Station
Overcast Overcast  
Wind Chill: 26°   Ceiling: 2900
Heat Index: 26°   Visibility: 9mi
Dew Point: 22°   Wind: 3mph
Humidity: 84%   Direction: 260°W
Pressure: 30.06"   Gusts: NA
Location:  41.4°N, 75.72°W
Report Text: KAVP 280654Z 26003KT 9SM BKN029 OVC034 M03/M06 A3006 RMK AO2 SNE54 SLP188 P0000 T10331056
Loading
Personal Weather Stations






























Interactive Weather Map New forecast layout! Learn more

10-Day Weather Forecast

Advertisements
Track Severe Weather on mobile